sensor_id;sensor_type;location;lat;lon;timestamp;P1;durP1;ratioP1;P2;durP2;ratioP2
8887;SDS011;4480;52.370;9.748;2023-06-22T00:00:10;13.87;;;12.67;;
8887;SDS011;4480;52.370;9.748;2023-06-22T00:02:38;13.67;;;12.27;;
8887;SDS011;4480;52.370;9.748;2023-06-22T00:05:06;14.20;;;12.87;;
8887;SDS011;4480;52.370;9.748;2023-06-22T00:07:33;15.10;;;13.60;;
8887;SDS011;4480;52.370;9.748;2023-06-22T00:10:00;14.73;;;13.23;;
8887;SDS011;4480;52.370;9.748;2023-06-22T00:12:26;15.90;;;14.50;;
8887;SDS011;4480;52.370;9.748;2023-06-22T00:14:53;16.10;;;14.60;;
8887;SDS011;4480;52.370;9.748;2023-06-22T00:17:20;17.20;;;15.50;;
8887;SDS011;4480;52.370;9.748;2023-06-22T00:19:47;15.80;;;14.40;;
8887;SDS011;4480;52.370;9.748;2023-06-22T00:22:19;16.23;;;14.63;;
8887;SDS011;4480;52.370;9.748;2023-06-22T00:24:53;17.20;;;15.70;;
8887;SDS011;4480;52.370;9.748;2023-06-22T00:27:20;16.07;;;14.70;;
8887;SDS011;4480;52.370;9.748;2023-06-22T00:29:46;15.37;;;14.00;;
8887;SDS011;4480;52.370;9.748;2023-06-22T00:32:13;16.97;;;15.43;;
8887;SDS011;4480;52.370;9.748;2023-06-22T00:34:41;17.30;;;15.43;;
8887;SDS011;4480;52.370;9.748;2023-06-22T00:37:07;15.93;;;14.40;;
8887;SDS011;4480;52.370;9.748;2023-06-22T00:39:37;15.03;;;13.53;;
8887;SDS011;4480;52.370;9.748;2023-06-22T00:42:04;15.23;;;13.83;;
8887;SDS011;4480;52.370;9.748;2023-06-22T00:44:31;15.47;;;14.10;;
8887;SDS011;4480;52.370;9.748;2023-06-22T00:46:58;17.27;;;15.77;;
8887;SDS011;4480;52.370;9.748;2023-06-22T00:49:26;17.10;;;15.60;;
8887;SDS011;4480;52.370;9.748;2023-06-22T00:51:53;17.40;;;15.77;;
8887;SDS011;4480;52.370;9.748;2023-06-22T00:54:20;16.57;;;15.07;;
8887;SDS011;4480;52.370;9.748;2023-06-22T00:56:51;16.87;;;15.17;;
8887;SDS011;4480;52.370;9.748;2023-06-22T00:59:21;15.67;;;14.17;;
8887;SDS011;4480;52.370;9.748;2023-06-22T01:01:48;16.97;;;15.10;;
8887;SDS011;4480;52.370;9.748;2023-06-22T01:04:14;17.57;;;15.70;;
8887;SDS011;4480;52.370;9.748;2023-06-22T01:06:44;16.10;;;14.70;;
8887;SDS011;4480;52.370;9.748;2023-06-22T01:09:31;16.10;;;14.80;;
8887;SDS011;4480;52.370;9.748;2023-06-22T01:12:04;14.27;;;13.00;;
8887;SDS011;4480;52.370;9.748;2023-06-22T01:14:35;16.03;;;14.63;;
8887;SDS011;4480;52.370;9.748;2023-06-22T01:17:08;16.37;;;14.90;;
8887;SDS011;4480;52.370;9.748;2023-06-22T01:19:35;16.70;;;15.00;;
8887;SDS011;4480;52.370;9.748;2023-06-22T01:22:08;15.83;;;14.33;;
8887;SDS011;4480;52.370;9.748;2023-06-22T01:24:41;14.90;;;13.60;;
8887;SDS011;4480;52.370;9.748;2023-06-22T01:27:22;16.70;;;15.20;;
8887;SDS011;4480;52.370;9.748;2023-06-22T01:29:59;16.40;;;15.00;;
8887;SDS011;4480;52.370;9.748;2023-06-22T01:32:31;16.40;;;14.90;;
8887;SDS011;4480;52.370;9.748;2023-06-22T01:35:00;15.50;;;14.10;;
8887;SDS011;4480;52.370;9.748;2023-06-22T01:37:29;16.10;;;14.60;;
8887;SDS011;4480;52.370;9.748;2023-06-22T01:39:57;16.70;;;15.10;;
8887;SDS011;4480;52.370;9.748;2023-06-22T01:42:25;16.40;;;14.83;;
8887;SDS011;4480;52.370;9.748;2023-06-22T01:44:52;15.30;;;13.80;;
8887;SDS011;4480;52.370;9.748;2023-06-22T01:47:21;16.40;;;14.90;;
8887;SDS011;4480;52.370;9.748;2023-06-22T01:49:48;15.57;;;14.17;;
8887;SDS011;4480;52.370;9.748;2023-06-22T01:52:17;17.47;;;14.90;;
8887;SDS011;4480;52.370;9.748;2023-06-22T01:54:46;15.90;;;14.50;;
8887;SDS011;4480;52.370;9.748;2023-06-22T01:57:13;16.53;;;14.97;;
8887;SDS011;4480;52.370;9.748;2023-06-22T01:59:42;17.00;;;15.47;;
8887;SDS011;4480;52.370;9.748;2023-06-22T02:02:16;15.70;;;14.33;;
8887;SDS011;4480;52.370;9.748;2023-06-22T02:04:52;16.37;;;14.87;;
8887;SDS011;4480;52.370;9.748;2023-06-22T02:07:23;15.97;;;14.27;;
8887;SDS011;4480;52.370;9.748;2023-06-22T02:09:54;14.60;;;13.30;;
8887;SDS011;4480;52.370;9.748;2023-06-22T02:12:24;15.50;;;14.10;;
8887;SDS011;4480;52.370;9.748;2023-06-22T02:14:53;14.43;;;13.03;;
8887;SDS011;4480;52.370;9.748;2023-06-22T02:17:21;14.90;;;13.30;;
8887;SDS011;4480;52.370;9.748;2023-06-22T02:19:49;15.33;;;13.83;;
8887;SDS011;4480;52.370;9.748;2023-06-22T02:22:16;14.40;;;13.00;;
8887;SDS011;4480;52.370;9.748;2023-06-22T02:24:43;13.77;;;12.57;;
8887;SDS011;4480;52.370;9.748;2023-06-22T02:27:09;14.93;;;12.67;;
8887;SDS011;4480;52.370;9.748;2023-06-22T02:29:37;15.30;;;13.80;;
8887;SDS011;4480;52.370;9.748;2023-06-22T02:32:04;13.97;;;12.50;;
8887;SDS011;4480;52.370;9.748;2023-06-22T02:34:33;14.77;;;13.37;;
8887;SDS011;4480;52.370;9.748;2023-06-22T02:36:59;13.73;;;12.27;;
8887;SDS011;4480;52.370;9.748;2023-06-22T02:39:27;14.43;;;13.13;;
8887;SDS011;4480;52.370;9.748;2023-06-22T02:41:54;13.90;;;12.50;;
8887;SDS011;4480;52.370;9.748;2023-06-22T02:44:21;14.07;;;12.80;;
8887;SDS011;4480;52.370;9.748;2023-06-22T02:46:48;12.77;;;11.57;;
8887;SDS011;4480;52.370;9.748;2023-06-22T02:49:15;14.67;;;13.23;;
8887;SDS011;4480;52.370;9.748;2023-06-22T02:51:44;13.10;;;11.90;;
8887;SDS011;4480;52.370;9.748;2023-06-22T02:54:12;13.90;;;12.70;;
8887;SDS011;4480;52.370;9.748;2023-06-22T02:56:38;14.13;;;12.77;;
8887;SDS011;4480;52.370;9.748;2023-06-22T02:59:09;13.87;;;12.47;;
8887;SDS011;4480;52.370;9.748;2023-06-22T03:01:36;14.87;;;12.90;;
8887;SDS011;4480;52.370;9.748;2023-06-22T03:04:05;14.63;;;13.33;;
8887;SDS011;4480;52.370;9.748;2023-06-22T03:06:32;14.73;;;13.30;;
8887;SDS011;4480;52.370;9.748;2023-06-22T03:09:01;14.83;;;13.53;;
8887;SDS011;4480;52.370;9.748;2023-06-22T03:11:29;15.30;;;13.77;;
8887;SDS011;4480;52.370;9.748;2023-06-22T03:13:56;14.53;;;13.23;;
8887;SDS011;4480;52.370;9.748;2023-06-22T03:16:23;16.13;;;14.40;;
8887;SDS011;4480;52.370;9.748;2023-06-22T03:18:50;14.13;;;12.77;;
8887;SDS011;4480;52.370;9.748;2023-06-22T03:21:18;14.27;;;12.87;;
8887;SDS011;4480;52.370;9.748;2023-06-22T03:23:45;14.63;;;13.23;;
8887;SDS011;4480;52.370;9.748;2023-06-22T03:26:16;15.00;;;13.60;;
8887;SDS011;4480;52.370;9.748;2023-06-22T03:28:43;14.73;;;13.33;;
8887;SDS011;4480;52.370;9.748;2023-06-22T03:31:09;15.33;;;13.83;;
8887;SDS011;4480;52.370;9.748;2023-06-22T03:33:36;14.73;;;13.40;;
8887;SDS011;4480;52.370;9.748;2023-06-22T03:36:03;15.07;;;13.47;;
8887;SDS011;4480;52.370;9.748;2023-06-22T03:38:30;15.17;;;13.83;;
8887;SDS011;4480;52.370;9.748;2023-06-22T03:40:57;14.80;;;13.50;;
8887;SDS011;4480;52.370;9.748;2023-06-22T03:43:25;14.80;;;13.40;;
8887;SDS011;4480;52.370;9.748;2023-06-22T03:45:52;13.97;;;12.67;;
8887;SDS011;4480;52.370;9.748;2023-06-22T03:48:18;14.67;;;13.27;;
8887;SDS011;4480;52.370;9.748;2023-06-22T03:50:45;13.37;;;12.17;;
8887;SDS011;4480;52.370;9.748;2023-06-22T03:53:12;14.90;;;13.57;;
8887;SDS011;4480;52.370;9.748;2023-06-22T03:55:40;14.67;;;13.37;;
8887;SDS011;4480;52.370;9.748;2023-06-22T03:58:14;14.40;;;13.00;;
8887;SDS011;4480;52.370;9.748;2023-06-22T04:00:42;16.17;;;12.40;;
8887;SDS011;4480;52.370;9.748;2023-06-22T04:03:09;15.13;;;13.73;;
8887;SDS011;4480;52.370;9.748;2023-06-22T04:05:37;15.63;;;13.73;;
8887;SDS011;4480;52.370;9.748;2023-06-22T04:08:04;15.40;;;14.00;;
8887;SDS011;4480;52.370;9.748;2023-06-22T04:11:52;14.30;;;12.77;;
8887;SDS011;4480;52.370;9.748;2023-06-22T04:14:19;13.60;;;12.40;;
8887;SDS011;4480;52.370;9.748;2023-06-22T04:16:45;15.17;;;13.17;;
8887;SDS011;4480;52.370;9.748;2023-06-22T04:19:12;14.00;;;12.70;;
8887;SDS011;4480;52.370;9.748;2023-06-22T04:21:41;15.00;;;13.60;;
8887;SDS011;4480;52.370;9.748;2023-06-22T04:24:09;15.00;;;13.60;;
8887;SDS011;4480;52.370;9.748;2023-06-22T04:26:36;14.60;;;13.07;;
8887;SDS011;4480;52.370;9.748;2023-06-22T04:29:04;15.10;;;13.80;;
8887;SDS011;4480;52.370;9.748;2023-06-22T04:31:31;16.43;;;13.50;;
8887;SDS011;4480;52.370;9.748;2023-06-22T04:34:01;14.07;;;12.77;;
8887;SDS011;4480;52.370;9.748;2023-06-22T04:36:31;18.03;;;13.67;;
8887;SDS011;4480;52.370;9.748;2023-06-22T04:39:02;14.07;;;12.83;;
8887;SDS011;4480;52.370;9.748;2023-06-22T04:41:30;14.83;;;13.27;;
8887;SDS011;4480;52.370;9.748;2023-06-22T04:44:08;14.73;;;13.23;;
8887;SDS011;4480;52.370;9.748;2023-06-22T04:46:35;13.77;;;12.50;;
8887;SDS011;4480;52.370;9.748;2023-06-22T04:49:03;14.20;;;12.80;;
8887;SDS011;4480;52.370;9.748;2023-06-22T04:51:34;11.83;;;10.80;;
8887;SDS011;4480;52.370;9.748;2023-06-22T04:54:05;12.30;;;11.20;;
8887;SDS011;4480;52.370;9.748;2023-06-22T04:56:32;12.67;;;11.57;;
8887;SDS011;4480;52.370;9.748;2023-06-22T04:59:00;12.40;;;11.20;;
8887;SDS011;4480;52.370;9.748;2023-06-22T05:01:29;13.07;;;11.83;;
8887;SDS011;4480;52.370;9.748;2023-06-22T05:03:57;11.30;;;10.20;;
8887;SDS011;4480;52.370;9.748;2023-06-22T05:06:26;12.97;;;11.47;;
8887;SDS011;4480;52.370;9.748;2023-06-22T05:08:53;14.13;;;11.83;;
8887;SDS011;4480;52.370;9.748;2023-06-22T05:11:22;12.03;;;10.77;;
8887;SDS011;4480;52.370;9.748;2023-06-22T05:13:49;15.50;;;11.77;;
8887;SDS011;4480;52.370;9.748;2023-06-22T05:16:16;14.83;;;11.93;;
8887;SDS011;4480;52.370;9.748;2023-06-22T05:18:51;13.57;;;12.17;;
8887;SDS011;4480;52.370;9.748;2023-06-22T05:21:21;12.70;;;11.50;;
8887;SDS011;4480;52.370;9.748;2023-06-22T05:23:49;12.10;;;10.80;;
8887;SDS011;4480;52.370;9.748;2023-06-22T05:26:16;17.17;;;11.63;;
8887;SDS011;4480;52.370;9.748;2023-06-22T05:28:43;12.47;;;11.13;;
8887;SDS011;4480;52.370;9.748;2023-06-22T05:31:11;14.10;;;11.23;;
8887;SDS011;4480;52.370;9.748;2023-06-22T05:33:38;15.23;;;10.97;;
8887;SDS011;4480;52.370;9.748;2023-06-22T05:36:06;14.87;;;11.70;;
8887;SDS011;4480;52.370;9.748;2023-06-22T05:38:33;12.00;;;11.00;;
8887;SDS011;4480;52.370;9.748;2023-06-22T05:41:00;11.50;;;10.37;;
8887;SDS011;4480;52.370;9.748;2023-06-22T05:43:27;12.70;;;10.80;;
8887;SDS011;4480;52.370;9.748;2023-06-22T05:45:54;14.13;;;10.80;;
8887;SDS011;4480;52.370;9.748;2023-06-22T05:48:21;11.70;;;10.60;;
8887;SDS011;4480;52.370;9.748;2023-06-22T05:50:48;12.70;;;10.23;;
8887;SDS011;4480;52.370;9.748;2023-06-22T05:53:16;11.93;;;9.53;;
8887;SDS011;4480;52.370;9.748;2023-06-22T05:55:43;12.17;;;10.13;;
8887;SDS011;4480;52.370;9.748;2023-06-22T05:58:09;12.40;;;11.20;;
8887;SDS011;4480;52.370;9.748;2023-06-22T06:00:38;13.50;;;10.17;;
8887;SDS011;4480;52.370;9.748;2023-06-22T06:03:05;11.27;;;9.80;;
8887;SDS011;4480;52.370;9.748;2023-06-22T06:05:33;10.27;;;9.27;;
8887;SDS011;4480;52.370;9.748;2023-06-22T06:08:00;11.33;;;8.47;;
8887;SDS011;4480;52.370;9.748;2023-06-22T06:10:31;10.70;;;9.53;;
8887;SDS011;4480;52.370;9.748;2023-06-22T06:12:58;11.17;;;9.53;;
8887;SDS011;4480;52.370;9.748;2023-06-22T06:15:27;12.07;;;9.80;;
8887;SDS011;4480;52.370;9.748;2023-06-22T06:17:53;11.93;;;9.87;;
8887;SDS011;4480;52.370;9.748;2023-06-22T06:20:21;10.17;;;9.10;;
8887;SDS011;4480;52.370;9.748;2023-06-22T06:22:48;10.20;;;9.10;;
8887;SDS011;4480;52.370;9.748;2023-06-22T06:25:16;11.67;;;10.40;;
8887;SDS011;4480;52.370;9.748;2023-06-22T06:27:46;11.77;;;9.30;;
8887;SDS011;4480;52.370;9.748;2023-06-22T06:30:14;10.63;;;8.67;;
8887;SDS011;4480;52.370;9.748;2023-06-22T06:32:42;9.90;;;8.10;;
8887;SDS011;4480;52.370;9.748;2023-06-22T06:35:10;12.27;;;8.50;;
8887;SDS011;4480;52.370;9.748;2023-06-22T06:37:39;9.30;;;8.40;;
8887;SDS011;4480;52.370;9.748;2023-06-22T06:40:07;8.87;;;7.93;;
8887;SDS011;4480;52.370;9.748;2023-06-22T06:42:35;11.77;;;8.10;;
8887;SDS011;4480;52.370;9.748;2023-06-22T06:45:07;10.20;;;7.33;;
8887;SDS011;4480;52.370;9.748;2023-06-22T06:47:34;9.27;;;7.70;;
8887;SDS011;4480;52.370;9.748;2023-06-22T06:50:02;9.23;;;8.30;;
8887;SDS011;4480;52.370;9.748;2023-06-22T06:52:29;11.23;;;7.93;;
8887;SDS011;4480;52.370;9.748;2023-06-22T06:54:56;9.40;;;8.50;;
8887;SDS011;4480;52.370;9.748;2023-06-22T06:57:23;11.27;;;8.73;;
8887;SDS011;4480;52.370;9.748;2023-06-22T06:59:54;10.90;;;8.00;;
8887;SDS011;4480;52.370;9.748;2023-06-22T07:02:22;9.40;;;8.00;;
8887;SDS011;4480;52.370;9.748;2023-06-22T07:04:50;10.77;;;8.20;;
8887;SDS011;4480;52.370;9.748;2023-06-22T07:07:17;8.30;;;7.50;;
8887;SDS011;4480;52.370;9.748;2023-06-22T07:09:43;14.80;;;7.97;;
8887;SDS011;4480;52.370;9.748;2023-06-22T07:12:10;12.13;;;8.00;;
8887;SDS011;4480;52.370;9.748;2023-06-22T07:14:37;9.50;;;8.20;;
8887;SDS011;4480;52.370;9.748;2023-06-22T07:17:04;9.00;;;7.40;;
8887;SDS011;4480;52.370;9.748;2023-06-22T07:19:32;9.60;;;7.77;;
8887;SDS011;4480;52.370;9.748;2023-06-22T07:21:59;8.20;;;7.40;;
8887;SDS011;4480;52.370;9.748;2023-06-22T07:24:27;9.83;;;6.80;;
8887;SDS011;4480;52.370;9.748;2023-06-22T07:26:53;6.97;;;6.43;;
8887;SDS011;4480;52.370;9.748;2023-06-22T07:29:22;9.00;;;6.27;;
8887;SDS011;4480;52.370;9.748;2023-06-22T07:31:49;7.33;;;6.63;;
8887;SDS011;4480;52.370;9.748;2023-06-22T07:34:17;11.03;;;7.10;;
8887;SDS011;4480;52.370;9.748;2023-06-22T07:36:45;7.30;;;6.43;;
8887;SDS011;4480;52.370;9.748;2023-06-22T07:39:12;7.50;;;6.80;;
8887;SDS011;4480;52.370;9.748;2023-06-22T07:41:39;7.33;;;6.63;;
8887;SDS011;4480;52.370;9.748;2023-06-22T07:44:06;9.13;;;7.83;;
8887;SDS011;4480;52.370;9.748;2023-06-22T07:46:33;8.27;;;7.33;;
8887;SDS011;4480;52.370;9.748;2023-06-22T07:49:02;8.40;;;7.50;;
8887;SDS011;4480;52.370;9.748;2023-06-22T07:51:28;8.13;;;7.33;;
8887;SDS011;4480;52.370;9.748;2023-06-22T07:53:57;9.20;;;6.97;;
8887;SDS011;4480;52.370;9.748;2023-06-22T07:56:23;7.40;;;6.80;;
8887;SDS011;4480;52.370;9.748;2023-06-22T07:58:50;7.67;;;6.97;;
8887;SDS011;4480;52.370;9.748;2023-06-22T08:01:18;8.33;;;6.57;;
8887;SDS011;4480;52.370;9.748;2023-06-22T08:03:46;7.23;;;6.63;;
8887;SDS011;4480;52.370;9.748;2023-06-22T08:06:13;7.13;;;6.53;;
8887;SDS011;4480;52.370;9.748;2023-06-22T08:08:41;7.43;;;6.73;;
8887;SDS011;4480;52.370;9.748;2023-06-22T08:11:10;7.27;;;6.57;;
8887;SDS011;4480;52.370;9.748;2023-06-22T08:13:36;7.87;;;7.07;;
8887;SDS011;4480;52.370;9.748;2023-06-22T08:16:03;7.50;;;6.70;;
8887;SDS011;4480;52.370;9.748;2023-06-22T08:18:32;9.77;;;7.27;;
8887;SDS011;4480;52.370;9.748;2023-06-22T08:20:59;8.60;;;6.97;;
8887;SDS011;4480;52.370;9.748;2023-06-22T08:23:26;11.20;;;6.60;;
8887;SDS011;4480;52.370;9.748;2023-06-22T08:25:53;9.03;;;8.00;;
8887;SDS011;4480;52.370;9.748;2023-06-22T08:28:21;7.87;;;7.17;;
8887;SDS011;4480;52.370;9.748;2023-06-22T08:30:48;8.10;;;7.30;;
8887;SDS011;4480;52.370;9.748;2023-06-22T08:33:14;8.93;;;7.37;;
8887;SDS011;4480;52.370;9.748;2023-06-22T08:35:42;10.87;;;8.50;;
8887;SDS011;4480;52.370;9.748;2023-06-22T08:38:09;8.77;;;7.87;;
8887;SDS011;4480;52.370;9.748;2023-06-22T08:40:39;8.63;;;7.83;;
8887;SDS011;4480;52.370;9.748;2023-06-22T08:43:05;7.93;;;7.20;;
8887;SDS011;4480;52.370;9.748;2023-06-22T08:45:34;10.40;;;7.67;;
8887;SDS011;4480;52.370;9.748;2023-06-22T08:48:00;10.30;;;7.83;;
8887;SDS011;4480;52.370;9.748;2023-06-22T08:50:27;8.93;;;7.77;;
8887;SDS011;4480;52.370;9.748;2023-06-22T08:52:54;8.93;;;8.17;;
8887;SDS011;4480;52.370;9.748;2023-06-22T08:55:21;8.57;;;7.80;;
8887;SDS011;4480;52.370;9.748;2023-06-22T08:57:48;8.10;;;7.40;;
8887;SDS011;4480;52.370;9.748;2023-06-22T09:00:16;9.00;;;8.20;;
8887;SDS011;4480;52.370;9.748;2023-06-22T09:02:47;9.27;;;8.37;;
8887;SDS011;4480;52.370;9.748;2023-06-22T09:05:14;9.50;;;8.30;;
8887;SDS011;4480;52.370;9.748;2023-06-22T09:07:41;9.03;;;8.20;;
8887;SDS011;4480;52.370;9.748;2023-06-22T09:10:08;8.70;;;8.00;;
8887;SDS011;4480;52.370;9.748;2023-06-22T09:12:35;8.43;;;7.63;;
8887;SDS011;4480;52.370;9.748;2023-06-22T09:15:03;9.40;;;8.53;;
8887;SDS011;4480;52.370;9.748;2023-06-22T09:17:32;9.17;;;8.47;;
8887;SDS011;4480;52.370;9.748;2023-06-22T09:20:01;9.73;;;8.90;;
8887;SDS011;4480;52.370;9.748;2023-06-22T09:22:30;10.23;;;9.23;;
8887;SDS011;4480;52.370;9.748;2023-06-22T09:24:57;9.97;;;9.17;;
8887;SDS011;4480;52.370;9.748;2023-06-22T09:27:24;10.60;;;9.57;;
8887;SDS011;4480;52.370;9.748;2023-06-22T09:29:51;10.50;;;9.60;;
8887;SDS011;4480;52.370;9.748;2023-06-22T09:32:18;10.60;;;9.67;;
8887;SDS011;4480;52.370;9.748;2023-06-22T09:34:45;10.00;;;9.10;;
8887;SDS011;4480;52.370;9.748;2023-06-22T09:37:13;11.97;;;10.77;;
8887;SDS011;4480;52.370;9.748;2023-06-22T09:39:40;11.40;;;10.30;;
8887;SDS011;4480;52.370;9.748;2023-06-22T09:42:07;10.87;;;9.87;;
8887;SDS011;4480;52.370;9.748;2023-06-22T09:44:34;11.67;;;10.67;;
8887;SDS011;4480;52.370;9.748;2023-06-22T09:47:01;11.70;;;10.60;;
8887;SDS011;4480;52.370;9.748;2023-06-22T09:49:28;11.03;;;10.03;;
8887;SDS011;4480;52.370;9.748;2023-06-22T09:51:55;12.50;;;11.30;;
8887;SDS011;4480;52.370;9.748;2023-06-22T09:54:23;12.83;;;11.53;;
8887;SDS011;4480;52.370;9.748;2023-06-22T09:56:50;11.43;;;10.33;;
8887;SDS011;4480;52.370;9.748;2023-06-22T09:59:16;14.53;;;10.10;;
8887;SDS011;4480;52.370;9.748;2023-06-22T10:01:43;13.77;;;12.47;;
8887;SDS011;4480;52.370;9.748;2023-06-22T10:04:10;12.93;;;11.73;;
8887;SDS011;4480;52.370;9.748;2023-06-22T10:06:37;13.53;;;12.13;;
8887;SDS011;4480;52.370;9.748;2023-06-22T10:09:05;12.10;;;10.80;;
8887;SDS011;4480;52.370;9.748;2023-06-22T10:11:34;17.43;;;12.80;;
8887;SDS011;4480;52.370;9.748;2023-06-22T10:14:02;13.77;;;12.47;;
8887;SDS011;4480;52.370;9.748;2023-06-22T10:16:32;15.20;;;13.60;;
8887;SDS011;4480;52.370;9.748;2023-06-22T10:19:00;15.43;;;13.30;;
8887;SDS011;4480;52.370;9.748;2023-06-22T10:21:27;13.97;;;12.67;;
8887;SDS011;4480;52.370;9.748;2023-06-22T10:23:54;14.63;;;13.30;;
8887;SDS011;4480;52.370;9.748;2023-06-22T10:26:21;13.57;;;12.17;;
8887;SDS011;4480;52.370;9.748;2023-06-22T10:28:49;12.80;;;11.50;;
8887;SDS011;4480;52.370;9.748;2023-06-22T10:31:16;11.80;;;10.60;;
8887;SDS011;4480;52.370;9.748;2023-06-22T10:33:43;13.60;;;12.20;;
8887;SDS011;4480;52.370;9.748;2023-06-22T10:36:10;13.60;;;12.20;;
8887;SDS011;4480;52.370;9.748;2023-06-22T10:38:37;13.17;;;11.87;;
8887;SDS011;4480;52.370;9.748;2023-06-22T10:41:03;12.43;;;11.27;;
8887;SDS011;4480;52.370;9.748;2023-06-22T10:43:30;15.87;;;12.00;;
8887;SDS011;4480;52.370;9.748;2023-06-22T10:45:58;14.50;;;12.93;;
8887;SDS011;4480;52.370;9.748;2023-06-22T10:48:25;13.10;;;11.90;;
8887;SDS011;4480;52.370;9.748;2023-06-22T10:50:52;13.10;;;11.80;;
8887;SDS011;4480;52.370;9.748;2023-06-22T10:53:19;11.50;;;10.47;;
8887;SDS011;4480;52.370;9.748;2023-06-22T10:55:46;13.17;;;11.83;;
8887;SDS011;4480;52.370;9.748;2023-06-22T10:58:13;12.90;;;11.57;;
8887;SDS011;4480;52.370;9.748;2023-06-22T11:00:40;11.37;;;10.33;;
8887;SDS011;4480;52.370;9.748;2023-06-22T11:03:08;13.00;;;11.70;;
8887;SDS011;4480;52.370;9.748;2023-06-22T11:05:35;13.50;;;11.97;;
8887;SDS011;4480;52.370;9.748;2023-06-22T11:08:02;13.97;;;12.67;;
8887;SDS011;4480;52.370;9.748;2023-06-22T11:10:29;13.33;;;12.17;;
8887;SDS011;4480;52.370;9.748;2023-06-22T11:12:55;13.03;;;11.73;;
8887;SDS011;4480;52.370;9.748;2023-06-22T11:15:23;13.33;;;12.03;;
8887;SDS011;4480;52.370;9.748;2023-06-22T11:17:50;12.37;;;11.30;;
8887;SDS011;4480;52.370;9.748;2023-06-22T11:20:18;11.60;;;10.50;;
8887;SDS011;4480;52.370;9.748;2023-06-22T11:22:45;14.10;;;12.60;;
8887;SDS011;4480;52.370;9.748;2023-06-22T11:25:11;14.77;;;13.20;;
8887;SDS011;4480;52.370;9.748;2023-06-22T11:27:38;14.43;;;13.07;;
8887;SDS011;4480;52.370;9.748;2023-06-22T11:30:06;13.53;;;12.33;;
8887;SDS011;4480;52.370;9.748;2023-06-22T11:32:33;16.00;;;12.70;;
8887;SDS011;4480;52.370;9.748;2023-06-22T11:35:00;13.33;;;12.13;;
8887;SDS011;4480;52.370;9.748;2023-06-22T11:37:28;13.03;;;11.60;;
8887;SDS011;4480;52.370;9.748;2023-06-22T11:39:55;17.53;;;12.97;;
8887;SDS011;4480;52.370;9.748;2023-06-22T11:42:23;12.83;;;11.73;;
8887;SDS011;4480;52.370;9.748;2023-06-22T11:44:50;13.93;;;12.30;;
8887;SDS011;4480;52.370;9.748;2023-06-22T11:47:17;12.27;;;11.20;;
8887;SDS011;4480;52.370;9.748;2023-06-22T11:49:44;16.10;;;12.30;;
8887;SDS011;4480;52.370;9.748;2023-06-22T11:52:10;13.70;;;12.57;;
8887;SDS011;4480;52.370;9.748;2023-06-22T11:54:38;13.73;;;12.07;;
8887;SDS011;4480;52.370;9.748;2023-06-22T11:57:05;12.83;;;11.63;;
8887;SDS011;4480;52.370;9.748;2023-06-22T11:59:32;12.47;;;11.40;;
8887;SDS011;4480;52.370;9.748;2023-06-22T12:01:59;13.60;;;12.43;;
8887;SDS011;4480;52.370;9.748;2023-06-22T12:04:26;12.77;;;11.57;;
8887;SDS011;4480;52.370;9.748;2023-06-22T12:06:52;11.03;;;10.13;;
8887;SDS011;4480;52.370;9.748;2023-06-22T12:09:19;12.63;;;11.43;;
8887;SDS011;4480;52.370;9.748;2023-06-22T12:11:47;13.33;;;12.03;;
8887;SDS011;4480;52.370;9.748;2023-06-22T12:14:14;11.90;;;10.90;;
8887;SDS011;4480;52.370;9.748;2023-06-22T12:16:41;12.37;;;11.27;;
8887;SDS011;4480;52.370;9.748;2023-06-22T12:19:09;11.73;;;10.83;;
8887;SDS011;4480;52.370;9.748;2023-06-22T12:21:36;11.13;;;10.23;;
8887;SDS011;4480;52.370;9.748;2023-06-22T12:24:04;12.00;;;10.80;;
8887;SDS011;4480;52.370;9.748;2023-06-22T12:26:31;11.73;;;10.50;;
8887;SDS011;4480;52.370;9.748;2023-06-22T12:28:59;11.97;;;10.50;;
8887;SDS011;4480;52.370;9.748;2023-06-22T12:31:26;11.17;;;10.17;;
8887;SDS011;4480;52.370;9.748;2023-06-22T12:33:53;12.80;;;11.50;;
8887;SDS011;4480;52.370;9.748;2023-06-22T12:36:20;13.50;;;12.30;;
8887;SDS011;4480;52.370;9.748;2023-06-22T12:38:47;12.70;;;11.60;;
8887;SDS011;4480;52.370;9.748;2023-06-22T12:41:14;11.87;;;10.87;;
8887;SDS011;4480;52.370;9.748;2023-06-22T12:43:40;12.27;;;11.27;;
8887;SDS011;4480;52.370;9.748;2023-06-22T12:46:08;12.20;;;10.93;;
8887;SDS011;4480;52.370;9.748;2023-06-22T12:48:35;12.07;;;11.07;;
8887;SDS011;4480;52.370;9.748;2023-06-22T12:51:06;12.70;;;11.50;;
8887;SDS011;4480;52.370;9.748;2023-06-22T12:53:34;12.63;;;11.43;;
8887;SDS011;4480;52.370;9.748;2023-06-22T12:56:01;12.70;;;11.70;;
8887;SDS011;4480;52.370;9.748;2023-06-22T12:58:27;15.03;;;13.20;;
8887;SDS011;4480;52.370;9.748;2023-06-22T13:00:54;12.80;;;11.70;;
8887;SDS011;4480;52.370;9.748;2023-06-22T13:03:22;12.70;;;11.63;;
8887;SDS011;4480;52.370;9.748;2023-06-22T13:05:51;13.67;;;12.53;;
8887;SDS011;4480;52.370;9.748;2023-06-22T13:08:18;13.27;;;12.10;;
8887;SDS011;4480;52.370;9.748;2023-06-22T13:10:45;14.03;;;12.23;;
8887;SDS011;4480;52.370;9.748;2023-06-22T13:13:12;13.80;;;12.70;;
8887;SDS011;4480;52.370;9.748;2023-06-22T13:15:38;18.43;;;13.67;;
8887;SDS011;4480;52.370;9.748;2023-06-22T13:18:05;14.17;;;12.87;;
8887;SDS011;4480;52.370;9.748;2023-06-22T13:20:33;13.77;;;12.57;;
8887;SDS011;4480;52.370;9.748;2023-06-22T13:23:00;14.37;;;13.00;;
8887;SDS011;4480;52.370;9.748;2023-06-22T13:25:27;16.67;;;13.57;;
8887;SDS011;4480;52.370;9.748;2023-06-22T13:27:54;14.87;;;13.30;;
8887;SDS011;4480;52.370;9.748;2023-06-22T13:30:20;14.07;;;12.60;;
8887;SDS011;4480;52.370;9.748;2023-06-22T13:32:47;14.50;;;13.00;;
8887;SDS011;4480;52.370;9.748;2023-06-22T13:35:14;15.53;;;13.87;;
8887;SDS011;4480;52.370;9.748;2023-06-22T13:37:42;15.90;;;14.17;;
8887;SDS011;4480;52.370;9.748;2023-06-22T13:40:09;18.13;;;14.27;;
8887;SDS011;4480;52.370;9.748;2023-06-22T13:42:36;15.47;;;14.00;;
8887;SDS011;4480;52.370;9.748;2023-06-22T13:45:04;13.47;;;12.27;;
8887;SDS011;4480;52.370;9.748;2023-06-22T13:47:32;13.90;;;12.50;;
8887;SDS011;4480;52.370;9.748;2023-06-22T13:49:59;14.40;;;13.07;;
8887;SDS011;4480;52.370;9.748;2023-06-22T13:52:26;15.43;;;13.87;;
8887;SDS011;4480;52.370;9.748;2023-06-22T13:54:54;14.43;;;12.90;;
8887;SDS011;4480;52.370;9.748;2023-06-22T13:57:20;14.03;;;12.63;;
8887;SDS011;4480;52.370;9.748;2023-06-22T13:59:47;13.93;;;12.73;;
8887;SDS011;4480;52.370;9.748;2023-06-22T14:02:14;15.87;;;14.47;;
8887;SDS011;4480;52.370;9.748;2023-06-22T14:04:41;14.70;;;13.40;;
8887;SDS011;4480;52.370;9.748;2023-06-22T14:07:08;14.57;;;13.10;;
8887;SDS011;4480;52.370;9.748;2023-06-22T14:09:35;15.53;;;13.97;;
8887;SDS011;4480;52.370;9.748;2023-06-22T14:12:07;14.27;;;13.07;;
8887;SDS011;4480;52.370;9.748;2023-06-22T14:14:34;16.23;;;14.73;;
8887;SDS011;4480;52.370;9.748;2023-06-22T14:17:01;16.77;;;15.23;;
8887;SDS011;4480;52.370;9.748;2023-06-22T14:19:27;16.27;;;14.87;;
8887;SDS011;4480;52.370;9.748;2023-06-22T14:21:54;17.70;;;14.63;;
8887;SDS011;4480;52.370;9.748;2023-06-22T14:24:21;17.87;;;16.17;;
8887;SDS011;4480;52.370;9.748;2023-06-22T14:26:48;18.20;;;16.70;;
8887;SDS011;4480;52.370;9.748;2023-06-22T14:29:16;18.00;;;16.23;;
8887;SDS011;4480;52.370;9.748;2023-06-22T14:31:44;18.67;;;16.77;;
8887;SDS011;4480;52.370;9.748;2023-06-22T14:34:12;17.97;;;16.37;;
8887;SDS011;4480;52.370;9.748;2023-06-22T14:36:39;18.33;;;16.73;;
8887;SDS011;4480;52.370;9.748;2023-06-22T14:39:06;17.60;;;15.90;;
8887;SDS011;4480;52.370;9.748;2023-06-22T14:41:33;16.83;;;15.17;;
8887;SDS011;4480;52.370;9.748;2023-06-22T14:44:00;19.20;;;17.50;;
8887;SDS011;4480;52.370;9.748;2023-06-22T14:46:29;16.50;;;15.20;;
8887;SDS011;4480;52.370;9.748;2023-06-22T14:48:55;16.47;;;14.97;;
8887;SDS011;4480;52.370;9.748;2023-06-22T14:51:22;16.47;;;15.07;;
8887;SDS011;4480;52.370;9.748;2023-06-22T14:53:49;17.80;;;16.10;;
8887;SDS011;4480;52.370;9.748;2023-06-22T14:56:16;16.80;;;15.30;;